Tallahassee, FL

12:28 AM EDT on October 02, 2014 (GMT -0400)
Tallahassee Regional | Change Station
CLOSE
Current Station
Airport
Location: Tallahassee,
Elevation: 52 ft
Nearby Weather Stations

Elev 52 ft 30.39 °N, 84.35 °W | Updated 35 minutes ago

Clear
Clear
72 °F
Feels Like 72 °F
N
0
Wind Variable Wind from North

Today
High -- | Low -- °F
--% Chance of Precip.
Yesterday
High -- | Low -- °F
Precip. -- in
7:31 AM 7:21 PM
First Quarter, 54% visible
Pressure 30.01 in
Visibility 10.0 miles
Clouds Clear
Dew Point 70 °F
Humidity 93%
Rainfall 0.00 in
Snow Depth Not available.
UV 0 out of 12
Pollen 8.40 out of 12
Air Quality Not available.
Flu Activity Not available.
METAR KTLH 020353Z AUTO 00000KT 10SM CLR 22/21 A3001 RMK AO2 SLP160 T02220211

More Conditions Fewer Conditions

Pressure 30.01 in
Visibility 10.0 miles
Clouds Clear
Dew Point 70 °F
Humidity 93%
Rainfall 0.00 in
Snow Depth Not available.
UV 0 out of 12
Pollen 8.40 out of 12
Air Quality Not available.
Flu Activity Not available.
METAR KTLH 020353Z AUTO 00000KT 10SM CLR 22/21 A3001 RMK AO2 SLP160 T02220211

More Conditions Fewer Conditions

10-Day Weather Forecast

Almanac

Astronomy

Oct. 02, 2014 Rise Set
Actual Time 7:31 AM EDT 7:21 PM EDT
Civil Twilight 7:07 AM EDT 7:45 PM EDT
Nautical Twilight 6:39 AM EDT 8:13 PM EDT
Astronomical Twilight 6:11 AM EDT 8:41 PM EDT
Moon 3:05 PM EDT 1:10 AM EDT
Length of Visible Light 12h 37m
Length of Day
11h 50m
Tomorrow will be 1m 50s shorter.
First Quarter, 54% of the Moon is Illuminated
Today
First Quarter
Oct 8
Full
Oct 15
Last Quarter
Oct 23
New
Oct 30
First Quarter

Today's Extremes

State Highs State Lows

Community

WunderPhotos

Upload Photos

1,758,186 photos uploaded!

Nearby

Snow Depth

Station Depth Elevation
No new snow has been reported.

Earthquake Activity

City Distance Mag. Time & Date
No recent earthquake activity has been reported nearby.
Minimum magnitude displayed is 2.5.

Coastal Water Temperatures

Place Temperature
Apalachicola, FL 80.1 °F
Panama City, FL 80.1 °F

Nearby Weather Stations